Time;durP1;ratioP1;P1;durP2;ratioP2;P2;SDS_P1;SDS_P2;PMS_P1;PMS_P2;Temp;Humidity;BMP_temperature;BMP_pressure;BME280_temperature;BME280_humidity;BME280_pressure;Samples;Min_cycle;Max_cycle;Signal;HPM_P1;HPM_P2
2024/03/06 00:00:07;;;;;;;55.23;28.53;;;7.60;99.90;;;;;;5033759;28;20203;-73
2024/03/06 00:02:34;;;;;;;50.23;29.97;;;7.60;99.90;;;;;;5033702;28;20689;-73
2024/03/06 00:05:00;;;;;;;53.13;27.73;;;7.50;99.90;;;;;;5033234;28;20540;-74
2024/03/06 00:07:26;;;;;;;50.90;28.13;;;7.50;99.90;;;;;;5033902;28;20172;-72
2024/03/06 00:09:52;;;;;;;50.63;28.23;;;7.50;99.90;;;;;;5033614;28;20176;-73
2024/03/06 00:12:18;;;;;;;52.57;29.23;;;7.40;99.90;;;;;;5015548;28;20229;-72
2024/03/06 00:14:44;;;;;;;55.13;29.57;;;7.40;99.90;;;;;;5033121;28;20196;-73
2024/03/06 00:17:09;;;;;;;54.27;28.90;;;7.40;99.90;;;;;;5033491;28;20172;-73
2024/03/06 00:19:35;;;;;;;51.10;28.47;;;7.30;99.90;;;;;;5033130;28;20180;-73
2024/03/06 00:22:02;;;;;;;59.63;30.50;;;7.30;99.90;;;;;;5033667;28;20665;-73
2024/03/06 00:24:28;;;;;;;62.97;30.27;;;7.20;99.90;;;;;;5033028;28;20230;-73
2024/03/06 00:26:53;;;;;;;56.57;29.53;;;7.20;99.90;;;;;;5033413;28;20270;-73
2024/03/06 00:29:19;;;;;;;53.47;29.57;;;7.20;99.90;;;;;;5033055;28;20531;-73
2024/03/06 00:31:45;;;;;;;61.17;30.37;;;7.20;99.90;;;;;;5033284;28;20242;-73
2024/03/06 00:34:13;;;;;;;58.47;29.13;;;7.20;99.90;;;;;;5032839;28;20183;-73
2024/03/06 00:36:39;;;;;;;58.07;31.20;;;7.20;99.90;;;;;;5033017;28;20176;-73
2024/03/06 00:39:05;;;;;;;59.83;31.33;;;7.10;99.90;;;;;;5032982;28;20172;-72
2024/03/06 00:41:31;;;;;;;73.70;32.20;;;7.10;99.90;;;;;;5032945;28;20195;-72
2024/03/06 00:43:57;;;;;;;66.70;30.83;;;7.00;99.90;;;;;;5033038;28;20713;-73
2024/03/06 00:46:23;;;;;;;72.17;31.27;;;7.00;99.90;;;;;;5032385;28;20273;-73
2024/03/06 00:48:48;;;;;;;65.23;32.03;;;7.00;99.90;;;;;;5032578;28;20184;-73
2024/03/06 00:51:14;;;;;;;69.67;31.23;;;7.00;99.90;;;;;;5032896;28;20179;-72
2024/03/06 00:53:40;;;;;;;68.80;31.50;;;7.00;99.90;;;;;;5031853;28;20167;-73
2024/03/06 00:56:07;;;;;;;65.90;30.13;;;7.00;99.90;;;;;;5032382;28;20195;-73
2024/03/06 00:58:33;;;;;;;66.83;30.03;;;6.90;99.90;;;;;;5032322;28;20603;-73
2024/03/06 01:00:58;;;;;;;65.90;32.47;;;6.90;99.90;;;;;;5032181;28;20195;-73
2024/03/06 01:03:24;;;;;;;71.23;33.53;;;6.90;99.90;;;;;;5032798;28;20686;-72
2024/03/06 01:05:52;;;;;;;66.60;32.47;;;6.80;99.90;;;;;;5032249;28;20192;-73
2024/03/06 01:08:17;;;;;;;67.73;32.43;;;6.80;99.90;;;;;;5032387;28;20270;-72
2024/03/06 01:10:44;;;;;;;66.23;31.83;;;6.80;99.90;;;;;;5032049;28;20214;-73
2024/03/06 01:13:10;;;;;;;84.40;35.27;;;6.80;99.90;;;;;;5031888;28;20179;-73
2024/03/06 01:15:36;;;;;;;68.63;33.43;;;6.80;99.90;;;;;;5031931;28;20198;-72
2024/03/06 01:18:03;;;;;;;78.20;34.33;;;6.80;99.90;;;;;;5032331;28;20176;-73
2024/03/06 01:20:29;;;;;;;77.60;34.30;;;6.80;99.90;;;;;;5013844;28;20194;-73
2024/03/06 01:22:55;;;;;;;79.60;35.30;;;6.80;99.90;;;;;;5032120;28;20203;-72
2024/03/06 01:25:20;;;;;;;77.77;35.77;;;6.70;99.90;;;;;;5031804;28;20392;-72
2024/03/06 01:27:48;;;;;;;84.30;34.73;;;6.70;99.90;;;;;;5032283;28;20246;-73
2024/03/06 01:30:14;;;;;;;74.13;33.73;;;6.60;99.90;;;;;;5031795;28;20650;-72
2024/03/06 01:32:40;;;;;;;76.30;33.90;;;6.60;99.90;;;;;;5032218;28;20182;-73
2024/03/06 01:35:06;;;;;;;79.67;32.13;;;6.50;99.90;;;;;;5031790;28;20198;-73
2024/03/06 01:37:32;;;;;;;67.63;30.10;;;6.40;99.90;;;;;;5031846;28;20175;-73
2024/03/06 01:39:57;;;;;;;68.10;30.27;;;6.30;99.90;;;;;;5031942;28;20190;-72
2024/03/06 01:42:23;;;;;;;62.13;28.20;;;6.20;99.90;;;;;;5031830;28;20179;-72
2024/03/06 01:44:49;;;;;;;57.57;28.13;;;6.10;99.90;;;;;;5031344;28;20680;-72
2024/03/06 01:47:15;;;;;;;275.13;34.57;;;6.00;99.90;;;;;;5032015;28;20172;-73
2024/03/06 01:49:41;;;;;;;54.30;27.43;;;5.90;99.90;;;;;;5031838;28;20642;-72
2024/03/06 01:52:09;;;;;;;66.20;29.97;;;5.80;99.90;;;;;;5031852;28;20218;-73
2024/03/06 01:54:35;;;;;;;69.47;31.33;;;5.70;99.90;;;;;;5031288;28;20202;-73
2024/03/06 01:57:02;;;;;;;83.80;33.13;;;5.60;99.90;;;;;;5013665;28;20187;-73
2024/03/06 01:59:29;;;;;;;82.07;33.87;;;5.50;99.90;;;;;;5031550;28;20171;-73
2024/03/06 02:01:54;;;;;;;90.83;34.53;;;5.40;99.90;;;;;;5031909;28;20179;-73
2024/03/06 02:04:20;;;;;;;81.93;33.53;;;5.30;99.90;;;;;;5031013;28;20203;-72
2024/03/06 02:06:47;;;;;;;92.07;34.93;;;5.20;99.90;;;;;;5031672;28;20242;-74
2024/03/06 02:09:16;;;;;;;106.17;34.63;;;5.20;99.90;;;;;;5013761;28;20167;-72
2024/03/06 02:11:42;;;;;;;105.00;35.90;;;5.20;99.90;;;;;;5031242;28;20167;-73
2024/03/06 02:14:09;;;;;;;93.70;35.07;;;5.20;99.90;;;;;;5031069;28;20186;-73
2024/03/06 02:16:36;;;;;;;100.27;36.30;;;5.10;99.90;;;;;;5031127;28;20673;-73
2024/03/06 02:19:01;;;;;;;98.20;35.87;;;5.10;99.90;;;;;;5031322;28;20176;-72
2024/03/06 02:21:27;;;;;;;114.33;40.73;;;5.20;99.90;;;;;;5031286;28;20309;-74
2024/03/06 02:23:53;;;;;;;107.97;41.13;;;5.10;99.90;;;;;;5030890;28;20703;-73
2024/03/06 02:26:23;;;;;;;118.83;41.93;;;5.10;99.90;;;;;;5030895;28;20179;-72
2024/03/06 02:28:53;;;;;;;102.47;41.00;;;5.20;99.90;;;;;;5031086;28;20167;-72
2024/03/06 02:31:22;;;;;;;123.80;43.40;;;5.10;99.90;;;;;;5031300;28;20164;-73
2024/03/06 02:33:49;;;;;;;129.60;44.43;;;5.00;99.90;;;;;;5013611;28;20274;-72
2024/03/06 02:36:18;;;;;;;136.20;47.17;;;5.00;99.90;;;;;;5030862;28;20191;-73
2024/03/06 02:38:45;;;;;;;122.93;43.90;;;5.00;99.90;;;;;;5013018;28;20187;-72
2024/03/06 02:41:13;;;;;;;127.97;43.03;;;4.90;99.90;;;;;;5031008;28;20254;-72
2024/03/06 02:43:39;;;;;;;113.63;40.00;;;4.90;99.90;;;;;;5031230;28;20524;-73
2024/03/06 02:46:05;;;;;;;127.40;40.13;;;4.90;99.90;;;;;;5030829;28;20686;-72
2024/03/06 02:48:31;;;;;;;106.73;38.47;;;4.90;99.90;;;;;;5030767;28;20180;-73
2024/03/06 02:50:57;;;;;;;108.57;38.27;;;4.80;99.90;;;;;;5030820;28;20167;-73
2024/03/06 02:53:23;;;;;;;118.13;38.27;;;4.80;99.90;;;;;;5030591;28;20615;-73
2024/03/06 02:55:49;;;;;;;93.00;35.73;;;4.80;99.90;;;;;;5030896;28;20274;-73
2024/03/06 02:58:16;;;;;;;84.53;31.77;;;4.60;99.90;;;;;;5030629;28;20179;-72
2024/03/06 03:00:42;;;;;;;85.13;32.70;;;4.60;99.90;;;;;;5030716;28;20171;-73
2024/03/06 03:03:09;;;;;;;92.93;33.63;;;4.50;99.90;;;;;;5030762;28;20290;-73
2024/03/06 03:05:36;;;;;;;87.87;35.50;;;4.50;99.90;;;;;;5030394;28;20194;-73
2024/03/06 03:08:03;;;;;;;98.40;34.57;;;4.60;99.90;;;;;;5030602;28;20257;-74
2024/03/06 03:10:29;;;;;;;90.90;36.67;;;4.60;99.90;;;;;;5030600;28;20669;-72
2024/03/06 03:12:54;;;;;;;100.43;34.57;;;4.60;99.90;;;;;;5012725;28;20180;-72
2024/03/06 03:15:20;;;;;;;80.90;34.63;;;4.60;99.90;;;;;;5031098;28;20196;-71
2024/03/06 03:17:46;;;;;;;82.30;32.47;;;4.60;99.90;;;;;;5035393;28;20182;-72
2024/03/06 03:20:11;;;;;;;84.33;32.27;;;4.70;99.90;;;;;;5017133;28;20176;-72
2024/03/06 03:22:40;;;;;;;79.00;30.27;;;4.70;99.90;;;;;;5034519;28;20171;-72
2024/03/06 03:25:10;;;;;;;59.77;27.67;;;4.80;99.90;;;;;;5034479;28;20188;-71
2024/03/06 03:27:38;;;;;;;51.27;24.43;;;4.80;99.90;;;;;;5034352;28;20171;-72
2024/03/06 03:30:05;;;;;;;51.53;23.40;;;4.90;99.90;;;;;;5035010;28;20159;-72
2024/03/06 03:32:30;;;;;;;44.23;22.13;;;4.90;99.90;;;;;;5034500;28;20233;-72
2024/03/06 03:34:56;;;;;;;48.43;22.23;;;5.00;99.90;;;;;;5034170;28;20662;-72
2024/03/06 03:37:21;;;;;;;43.73;23.17;;;5.10;99.90;;;;;;5016707;28;20532;-72
2024/03/06 03:39:47;;;;;;;45.07;22.63;;;5.10;99.90;;;;;;5034759;28;20172;-72
2024/03/06 03:42:13;;;;;;;37.87;22.37;;;5.20;99.90;;;;;;5034229;28;20171;-72
2024/03/06 03:44:39;;;;;;;56.00;23.07;;;5.20;99.90;;;;;;5033905;28;20279;-71
2024/03/06 03:47:05;;;;;;;38.43;23.43;;;5.20;99.90;;;;;;5034324;28;20214;-72
2024/03/06 03:49:30;;;;;;;45.57;21.20;;;5.30;99.90;;;;;;5034034;28;20179;-72
2024/03/06 03:51:56;;;;;;;46.37;21.80;;;5.30;99.90;;;;;;5034551;28;20666;-72
2024/03/06 03:54:22;;;;;;;71.80;39.60;;;5.30;99.90;;;;;;5034140;28;20273;-72
2024/03/06 03:56:48;;;;;;;69.87;37.73;;;5.40;99.90;;;;;;5034047;28;20178;-72
2024/03/06 03:59:14;;;;;;;57.97;33.40;;;5.30;99.90;;;;;;5034064;28;20180;-72
2024/03/06 04:01:39;;;;;;;125.53;54.23;;;5.30;99.90;;;;;;5034311;28;20226;-72
2024/03/06 04:04:06;;;;;;;76.50;39.97;;;5.40;99.90;;;;;;5034050;28;20754;-72
2024/03/06 04:06:32;;;;;;;91.90;48.17;;;5.40;99.90;;;;;;5016018;28;20207;-72
2024/03/06 04:08:58;;;;;;;100.90;47.70;;;5.40;99.90;;;;;;5033775;28;20202;-72
2024/03/06 04:11:23;;;;;;;90.27;44.27;;;5.40;99.90;;;;;;5033842;28;20176;-72
2024/03/06 04:13:49;;;;;;;77.33;33.20;;;5.40;99.90;;;;;;5016239;28;20176;-72
2024/03/06 04:16:18;;;;;;;56.37;26.00;;;5.50;99.90;;;;;;5033379;28;20263;-72
2024/03/06 04:18:45;;;;;;;64.87;28.97;;;5.50;99.90;;;;;;5034074;28;20573;-72
2024/03/06 04:21:11;;;;;;;86.13;35.03;;;5.60;99.90;;;;;;5016025;28;20179;-72
2024/03/06 04:23:37;;;;;;;156.10;59.47;;;5.60;99.90;;;;;;5033710;28;20288;-72
2024/03/06 04:26:03;;;;;;;76.23;32.10;;;5.70;99.90;;;;;;5033076;28;20199;-72
2024/03/06 04:28:29;;;;;;;72.30;29.23;;;5.70;99.90;;;;;;5033539;28;20616;-72
2024/03/06 04:30:55;;;;;;;59.27;28.03;;;5.80;99.90;;;;;;5033619;28;20171;-72
2024/03/06 04:33:21;;;;;;;119.43;49.53;;;5.80;99.90;;;;;;5033499;28;20222;-72
2024/03/06 04:35:47;;;;;;;88.23;44.13;;;5.80;99.90;;;;;;5033613;28;20611;-72
2024/03/06 04:38:12;;;;;;;91.07;36.40;;;5.80;99.90;;;;;;5033606;28;20198;-71
2024/03/06 04:40:39;;;;;;;75.47;31.77;;;5.80;99.90;;;;;;5033175;28;20244;-71
2024/03/06 04:43:04;;;;;;;68.83;32.67;;;5.80;99.90;;;;;;5033308;28;20202;-71
2024/03/06 04:47:58;;;;;;;86.13;31.87;;;5.80;99.90;;;;;;5030293;28;20365;-72
2024/03/06 04:50:24;;;;;;;99.27;33.30;;;5.80;99.90;;;;;;5033074;28;20246;-72
2024/03/06 04:52:49;;;;;;;101.03;32.90;;;5.80;99.90;;;;;;5033232;28;20171;-72
2024/03/06 04:55:19;;;;;;;77.20;31.20;;;5.80;99.90;;;;;;5032809;28;20179;-72
2024/03/06 04:57:46;;;;;;;67.17;30.53;;;5.80;99.90;;;;;;5033101;28;20175;-72
2024/03/06 05:00:12;;;;;;;60.77;29.63;;;5.80;99.90;;;;;;5033015;28;20214;-72
2024/03/06 05:02:38;;;;;;;62.10;29.60;;;5.80;99.90;;;;;;5032948;28;20207;-72
2024/03/06 05:05:04;;;;;;;66.40;30.23;;;5.70;99.90;;;;;;5032655;28;20245;-72
2024/03/06 05:07:31;;;;;;;62.63;30.00;;;5.70;99.90;;;;;;5032838;28;20203;-72
2024/03/06 05:10:01;;;;;;;59.80;29.47;;;5.80;99.90;;;;;;5032908;28;20172;-73
2024/03/06 05:12:28;;;;;;;65.17;29.73;;;5.70;99.90;;;;;;5032556;28;20175;-72
2024/03/06 05:14:54;;;;;;;65.33;29.10;;;5.70;99.90;;;;;;5032685;28;20179;-72
2024/03/06 05:17:20;;;;;;;58.83;29.53;;;5.70;99.90;;;;;;5014554;28;20203;-72
2024/03/06 05:19:47;;;;;;;57.10;28.90;;;5.80;99.90;;;;;;5032553;28;20170;-72
2024/03/06 05:22:13;;;;;;;63.83;28.80;;;5.80;99.90;;;;;;5032675;28;20167;-72
2024/03/06 05:24:39;;;;;;;67.47;29.50;;;5.80;99.90;;;;;;5032323;28;20210;-72
2024/03/06 05:27:04;;;;;;;68.77;29.47;;;5.80;99.90;;;;;;5032747;28;20569;-72
2024/03/06 05:29:30;;;;;;;67.47;30.43;;;5.80;99.90;;;;;;5032421;28;20684;-72
2024/03/06 05:31:56;;;;;;;66.80;29.00;;;5.90;99.90;;;;;;5032213;28;20183;-72
2024/03/06 05:34:22;;;;;;;60.47;28.27;;;5.90;99.90;;;;;;5032087;28;20547;-72
2024/03/06 05:36:48;;;;;;;66.60;28.80;;;5.90;99.90;;;;;;5032039;28;20191;-72
2024/03/06 05:39:14;;;;;;;58.60;29.53;;;6.00;99.90;;;;;;5031558;28;20172;-72
2024/03/06 05:41:41;;;;;;;75.77;30.00;;;6.00;99.90;;;;;;5032298;28;20233;-72
2024/03/06 05:44:06;;;;;;;58.13;26.53;;;5.90;99.90;;;;;;5032162;28;20199;-72
2024/03/06 05:46:32;;;;;;;72.07;30.27;;;5.90;99.90;;;;;;5031567;28;20724;-72
2024/03/06 05:48:58;;;;;;;64.13;28.23;;;6.00;99.90;;;;;;5032026;28;20199;-72
2024/03/06 05:51:23;;;;;;;65.70;30.23;;;6.00;99.90;;;;;;5031996;28;20175;-72
2024/03/06 05:53:49;;;;;;;59.20;28.67;;;6.00;99.90;;;;;;5032117;28;20182;-72
2024/03/06 05:56:14;;;;;;;66.40;28.80;;;6.00;99.90;;;;;;5031682;28;20264;-72
2024/03/06 05:58:40;;;;;;;62.13;28.67;;;5.90;99.90;;;;;;5032325;28;20665;-72
2024/03/06 06:01:06;;;;;;;55.17;27.83;;;6.00;99.90;;;;;;5033120;28;20254;-72
2024/03/06 06:03:31;;;;;;;65.60;29.40;;;5.90;99.90;;;;;;5034746;28;20200;-72
2024/03/06 06:05:58;;;;;;;57.90;28.17;;;5.90;99.90;;;;;;5031617;28;20200;-73
2024/03/06 06:08:24;;;;;;;62.53;30.00;;;5.90;99.90;;;;;;5031834;28;20635;-72
2024/03/06 06:10:51;;;;;;;59.03;29.57;;;5.90;99.90;;;;;;5031491;28;20168;-72
2024/03/06 06:13:18;;;;;;;56.07;26.83;;;6.00;99.90;;;;;;5031317;28;20168;-72
2024/03/06 06:15:43;;;;;;;52.83;26.00;;;5.90;99.90;;;;;;5031213;28;20195;-72
2024/03/06 06:18:09;;;;;;;50.70;26.30;;;5.90;99.90;;;;;;5031594;28;20354;-72
2024/03/06 06:20:34;;;;;;;65.50;26.57;;;5.90;99.90;;;;;;5031183;28;20210;-72
2024/03/06 06:23:01;;;;;;;51.23;24.43;;;5.90;99.90;;;;;;5031163;28;20191;-72
2024/03/06 06:25:26;;;;;;;55.63;25.80;;;5.90;99.90;;;;;;5031006;28;20278;-72
2024/03/06 06:27:52;;;;;;;61.43;27.00;;;6.00;99.90;;;;;;5031407;28;20193;-72
2024/03/06 06:30:18;;;;;;;51.33;26.30;;;6.00;99.90;;;;;;5031186;28;20172;-72
2024/03/06 06:32:44;;;;;;;59.17;25.27;;;6.00;99.90;;;;;;5031143;28;20180;-72
2024/03/06 06:35:11;;;;;;;52.27;24.77;;;6.10;99.90;;;;;;5030517;28;20172;-72
2024/03/06 06:37:37;;;;;;;40.60;23.37;;;6.00;99.90;;;;;;5011329;28;20172;-72
2024/03/06 06:40:06;;;;;;;38.70;19.83;;;6.00;99.90;;;;;;5011891;28;20183;-72
2024/03/06 06:42:33;;;;;;;37.83;19.10;;;5.90;99.90;;;;;;5011280;28;20176;-72
2024/03/06 06:44:59;;;;;;;44.70;19.80;;;5.80;99.90;;;;;;5031042;28;20168;-72
2024/03/06 06:47:25;;;;;;;37.77;18.27;;;5.70;99.90;;;;;;5030855;28;20590;-72
2024/03/06 06:49:50;;;;;;;39.10;17.77;;;5.60;99.90;;;;;;5031064;28;20242;-72
2024/03/06 06:52:17;;;;;;;36.47;17.53;;;5.50;99.90;;;;;;5034830;28;20175;-72
2024/03/06 06:54:42;;;;;;;33.67;17.07;;;5.50;99.90;;;;;;5035108;28;20183;-73
2024/03/06 06:57:08;;;;;;;46.17;21.47;;;5.40;99.90;;;;;;5017170;28;20269;-71
2024/03/06 06:59:34;;;;;;;45.73;22.33;;;5.40;99.90;;;;;;5034912;28;20696;-71
2024/03/06 07:02:00;;;;;;;47.17;23.07;;;5.40;99.90;;;;;;5035062;28;20167;-72
2024/03/06 07:04:26;;;;;;;42.60;21.23;;;5.50;99.90;;;;;;5034982;28;20207;-72
2024/03/06 07:06:52;;;;;;;36.37;21.20;;;5.50;99.90;;;;;;5034530;28;20223;-72
2024/03/06 07:09:19;;;;;;;46.47;24.30;;;5.40;99.90;;;;;;5034359;28;20187;-72
2024/03/06 07:11:45;;;;;;;39.03;21.10;;;5.40;99.90;;;;;;5034735;28;20669;-72
2024/03/06 07:14:12;;;;;;;49.37;20.87;;;5.40;99.90;;;;;;5034711;28;20168;-71
2024/03/06 07:16:44;;;;;;;34.37;19.77;;;5.40;99.90;;;;;;5032953;28;20508;-71
2024/03/06 07:19:10;;;;;;;30.40;17.47;;;5.50;99.90;;;;;;5034601;28;20191;-71
2024/03/06 07:21:37;;;;;;;26.70;16.50;;;5.60;99.90;;;;;;5034377;28;20225;-71
2024/03/06 07:24:04;;;;;;;25.03;15.43;;;5.70;99.90;;;;;;5034428;28;20289;-70
2024/03/06 07:26:30;;;;;;;28.80;17.23;;;5.70;99.90;;;;;;5034919;28;20187;-71
2024/03/06 07:28:56;;;;;;;32.33;17.83;;;5.80;99.90;;;;;;5034238;28;20294;-71
2024/03/06 07:31:21;;;;;;;34.97;17.90;;;5.80;99.90;;;;;;5034137;28;20254;-71
2024/03/06 07:33:47;;;;;;;30.57;18.50;;;5.90;99.90;;;;;;5034328;28;20174;-70
2024/03/06 07:36:12;;;;;;;33.73;18.03;;;5.90;99.90;;;;;;5033936;28;20214;-71
2024/03/06 07:38:38;;;;;;;31.03;18.47;;;6.00;99.90;;;;;;5033924;28;20187;-71
2024/03/06 07:41:04;;;;;;;29.03;17.33;;;6.10;99.90;;;;;;5033797;28;20194;-73
2024/03/06 07:43:29;;;;;;;27.73;18.47;;;6.30;99.90;;;;;;5033570;28;20214;-72
2024/03/06 07:45:55;;;;;;;30.37;19.03;;;6.50;99.90;;;;;;5033636;28;20697;-70
2024/03/06 07:48:21;;;;;;;29.90;18.83;;;6.80;99.90;;;;;;5033499;28;20178;-71
2024/03/06 07:50:46;;;;;;;35.03;19.80;;;7.10;99.90;;;;;;5033546;28;20176;-74
2024/03/06 07:53:12;;;;;;;25.80;16.53;;;7.60;99.90;;;;;;5033871;28;20183;-71
2024/03/06 07:55:38;;;;;;;23.27;15.10;;;8.00;99.90;;;;;;5033023;28;20203;-72
2024/03/06 07:58:04;;;;;;;19.93;13.70;;;8.10;99.90;;;;;;5033752;28;20631;-71
2024/03/06 08:00:31;;;;;;;19.80;12.20;;;8.00;99.90;;;;;;5033805;28;20172;-70
2024/03/06 08:02:57;;;;;;;18.33;12.47;;;7.80;99.90;;;;;;5033128;28;20199;-71
2024/03/06 08:05:22;;;;;;;16.03;12.37;;;7.80;99.90;;;;;;5033443;28;20194;-71
2024/03/06 08:07:48;;;;;;;20.27;12.10;;;7.80;99.90;;;;;;5033983;28;20540;-71
2024/03/06 08:10:14;;;;;;;14.90;11.90;;;7.80;99.90;;;;;;5033583;28;20229;-72
2024/03/06 08:12:41;;;;;;;15.50;11.50;;;7.80;99.90;;;;;;5033232;28;20304;-72
2024/03/06 08:15:09;;;;;;;12.47;11.17;;;7.90;99.90;;;;;;5033306;28;20649;-73
2024/03/06 08:17:35;;;;;;;16.80;12.07;;;7.90;99.90;;;;;;5033443;28;20164;-72
2024/03/06 08:20:07;;;;;;;14.90;11.77;;;8.00;99.90;;;;;;5033393;28;20186;-72
2024/03/06 08:22:38;;;;;;;16.40;12.27;;;8.00;99.90;;;;;;5033159;28;20175;-72
2024/03/06 08:25:05;;;;;;;14.93;12.20;;;8.20;99.90;;;;;;5033152;28;20170;-72
2024/03/06 08:27:31;;;;;;;16.87;11.57;;;8.40;99.90;;;;;;5033166;28;20175;-72
2024/03/06 08:29:57;;;;;;;13.53;12.13;;;8.50;99.90;;;;;;5033243;28;20230;-71
2024/03/06 08:32:22;;;;;;;15.53;12.67;;;8.70;99.90;;;;;;5033021;28;20176;-72
2024/03/06 08:34:48;;;;;;;14.57;11.10;;;9.10;99.90;;;;;;5032283;28;20175;-71
2024/03/06 08:37:13;;;;;;;13.60;11.77;;;9.50;99.90;;;;;;5032695;28;20575;-72
2024/03/06 08:39:39;;;;;;;11.73;10.67;;;10.00;99.90;;;;;;5032593;28;20183;-71
2024/03/06 08:42:05;;;;;;;12.30;10.30;;;10.40;99.90;;;;;;5032345;28;20179;-72
2024/03/06 08:44:30;;;;;;;11.70;9.70;;;10.80;99.90;;;;;;5032439;28;20678;-72
2024/03/06 08:46:56;;;;;;;10.63;8.50;;;11.60;99.90;;;;;;5032943;28;20211;-72
2024/03/06 08:49:21;;;;;;;9.07;7.30;;;12.40;99.90;;;;;;5032505;28;20183;-72
2024/03/06 08:51:47;;;;;;;9.13;6.30;;;12.90;99.90;;;;;;5032564;28;20650;-72
2024/03/06 08:54:13;;;;;;;7.27;6.30;;;13.50;99.90;;;;;;5032716;28;20183;-72
2024/03/06 08:56:38;;;;;;;5.83;5.30;;;13.90;99.90;;;;;;5032554;28;20202;-72
2024/03/06 08:59:04;;;;;;;6.93;6.00;;;14.20;99.90;;;;;;5032785;28;20190;-72
2024/03/06 09:01:29;;;;;;;6.93;5.33;;;14.30;99.90;;;;;;5032686;28;20635;-72
2024/03/06 09:03:57;;;;;;;7.13;5.33;;;14.50;99.90;;;;;;5032584;28;20654;-72
2024/03/06 09:06:23;;;;;;;7.07;5.80;;;14.60;99.90;;;;;;5032094;28;20192;-72
2024/03/06 09:08:48;;;;;;;9.53;5.70;;;14.50;99.90;;;;;;5032598;28;20179;-72
2024/03/06 09:11:14;;;;;;;6.83;5.67;;;14.80;99.90;;;;;;5032639;28;20168;-72
2024/03/06 09:13:39;;;;;;;9.33;7.07;;;15.10;99.90;;;;;;5031668;28;20174;-72
2024/03/06 09:16:05;;;;;;;12.43;7.70;;;15.10;99.90;;;;;;5032306;28;20199;-72
2024/03/06 09:18:31;;;;;;;8.50;6.90;;;15.10;99.90;;;;;;5032378;28;20350;-72
2024/03/06 09:20:56;;;;;;;9.53;7.83;;;15.40;99.90;;;;;;5032461;28;20180;-72
2024/03/06 09:23:22;;;;;;;13.57;8.68;;;15.80;99.90;;;;;;5032315;28;20265;-72
2024/03/06 09:25:48;;;;;;;14.73;9.27;;;16.30;99.90;;;;;;5031881;28;20270;-72
2024/03/06 09:28:13;;;;;;;13.97;9.73;;;16.50;99.90;;;;;;5032251;28;20198;-72
2024/03/06 09:30:39;;;;;;;15.03;10.00;;;16.60;99.90;;;;;;5032063;28;20207;-72
2024/03/06 09:33:05;;;;;;;12.10;9.50;;;16.70;99.90;;;;;;5031832;28;20172;-72
2024/03/06 09:35:32;;;;;;;14.27;9.57;;;17.00;99.90;;;;;;5031056;28;20203;-72
2024/03/06 09:37:58;;;;;;;18.02;9.50;;;17.30;99.90;;;;;;5031709;28;20175;-72
2024/03/06 09:40:24;;;;;;;15.68;10.38;;;17.50;99.90;;;;;;5031875;28;20718;-72
2024/03/06 09:42:50;;;;;;;14.52;10.10;;;17.70;99.90;;;;;;5031907;28;20179;-72
2024/03/06 09:45:19;;;;;;;19.13;11.45;;;18.10;99.90;;;;;;5031882;28;20585;-72
2024/03/06 09:47:46;;;;;;;22.65;12.50;;;18.30;99.90;;;;;;5029708;28;20214;-72
2024/03/06 09:50:20;;;;;;;18.30;12.13;;;18.50;99.90;;;;;;5032019;28;20211;-72
2024/03/06 09:52:47;;;;;;;24.92;14.07;;;18.60;99.90;;;;;;5031312;28;20521;-72
2024/03/06 09:55:15;;;;;;;22.55;15.27;;;18.50;99.90;;;;;;5031213;28;20183;-72
2024/03/06 09:57:40;;;;;;;21.92;14.90;;;18.60;99.90;;;;;;5031416;28;20171;-71
2024/03/06 10:00:07;;;;;;;20.52;14.85;;;18.50;99.90;;;;;;5031580;28;20187;-72
2024/03/06 10:02:39;;;;;;;23.13;15.40;;;18.50;99.90;;;;;;5031478;28;20176;-72
2024/03/06 10:05:05;;;;;;;19.58;13.43;;;18.40;99.90;;;;;;5031323;28;20642;-72
2024/03/06 10:07:31;;;;;;;19.33;13.43;;;18.30;99.90;;;;;;5031286;28;20186;-71
2024/03/06 10:09:57;;;;;;;17.35;12.52;;;18.20;99.90;;;;;;5031345;28;20171;-71
2024/03/06 10:12:23;;;;;;;18.48;12.70;;;18.00;99.90;;;;;;5031368;28;20176;-72
2024/03/06 10:14:52;;;;;;;17.53;12.17;;;17.90;99.90;;;;;;5031172;28;20175;-72
2024/03/06 10:17:26;;;;;;;15.75;12.52;;;17.90;99.90;;;;;;5030897;28;20187;-71
2024/03/06 10:19:52;;;;;;;18.73;13.43;;;17.70;99.90;;;;;;5031447;28;20292;-71
2024/03/06 10:22:19;;;;;;;18.43;14.27;;;17.70;99.90;;;;;;5031057;28;20698;-71
2024/03/06 10:24:46;;;;;;;18.77;13.97;;;17.80;99.90;;;;;;5030670;28;20569;-71
2024/03/06 10:27:18;;;;;;;21.67;15.43;;;17.70;99.90;;;;;;5031232;28;20195;-71
2024/03/06 10:29:44;;;;;;;19.33;14.85;;;17.30;99.90;;;;;;5030343;28;20629;-71
2024/03/06 10:32:10;;;;;;;19.70;13.80;;;17.40;99.90;;;;;;5030647;28;20178;-71
2024/03/06 10:34:38;;;;;;;23.98;15.65;;;17.40;99.90;;;;;;5030833;28;20163;-71
2024/03/06 10:37:04;;;;;;;20.83;14.67;;;17.30;99.90;;;;;;5031124;28;20563;-71
2024/03/06 10:39:38;;;;;;;16.83;13.77;;;17.10;99.90;;;;;;5030832;28;20179;-71
2024/03/06 10:42:08;;;;;;;21.43;13.70;;;17.10;99.90;;;;;;5031285;28;20261;-71
2024/03/06 10:44:36;;;;;;;21.03;14.70;;;17.10;99.90;;;;;;5030434;28;20753;-71
2024/03/06 10:47:05;;;;;;;21.90;14.73;;;16.80;99.90;;;;;;5031335;28;20298;-71
2024/03/06 10:49:32;;;;;;;23.20;15.47;;;16.10;99.90;;;;;;5030416;28;20592;-71
2024/03/06 10:52:05;;;;;;;20.50;14.53;;;16.20;99.90;;;;;;5031207;28;20228;-71
2024/03/06 10:54:32;;;;;;;21.17;14.40;;;16.50;99.90;;;;;;5031054;28;20804;-71
2024/03/06 10:56:58;;;;;;;17.90;14.53;;;16.70;99.90;;;;;;5030744;28;20351;-71
2024/03/06 10:59:29;;;;;;;20.27;15.70;;;16.80;99.90;;;;;;5029953;28;20184;-71
2024/03/06 11:02:02;;;;;;;23.97;16.23;;;16.90;99.90;;;;;;5032037;28;20702;-71
2024/03/06 11:04:34;;;;;;;22.93;16.43;;;16.70;99.90;;;;;;5031197;28;20195;-71
2024/03/06 11:07:02;;;;;;;26.47;15.53;;;16.70;99.90;;;;;;5031341;28;20290;-71
2024/03/06 11:09:28;;;;;;;23.10;15.47;;;17.20;99.90;;;;;;5030692;28;20160;-71
2024/03/06 11:11:56;;;;;;;22.50;15.93;;;17.40;99.90;;;;;;5030910;28;20175;-71
2024/03/06 11:14:22;;;;;;;23.00;15.63;;;17.10;99.90;;;;;;5030582;28;20455;-71
2024/03/06 11:17:06;;;;;;;18.40;14.53;;;17.20;99.90;;;;;;5030429;28;20694;-71
2024/03/06 11:19:52;;;;;;;20.50;15.30;;;17.90;99.90;;;;;;5030394;28;20188;-71
2024/03/06 11:22:18;;;;;;;18.98;14.63;;;18.10;99.90;;;;;;5030555;28;20175;-71
2024/03/06 11:24:43;;;;;;;22.63;16.67;;;18.60;99.90;;;;;;5030286;28;20708;-71
2024/03/06 11:27:11;;;;;;;23.45;16.58;;;18.60;99.90;;;;;;5031011;28;20270;-71
2024/03/06 11:30:13;;;;;;;22.73;16.45;;;18.70;99.90;;;;;;5030735;28;20163;-71
2024/03/06 11:32:58;;;;;;;25.20;18.27;;;18.70;99.90;;;;;;5031485;28;20175;-71
2024/03/06 11:35:24;;;;;;;26.57;17.93;;;18.50;99.90;;;;;;5012506;28;20199;-71
2024/03/06 11:37:52;;;;;;;27.90;18.60;;;18.70;99.90;;;;;;5033087;28;20593;-71
2024/03/06 11:40:24;;;;;;;25.73;18.77;;;18.70;99.90;;;;;;5034192;28;20168;-71
2024/03/06 11:42:50;;;;;;;27.00;18.77;;;18.80;99.90;;;;;;5034238;28;20639;-71
2024/03/06 11:45:17;;;;;;;27.30;18.93;;;18.70;99.90;;;;;;5033956;28;20242;-71
2024/03/06 11:48:02;;;;;;;26.20;18.93;;;18.60;99.90;;;;;;5033754;28;20669;-71
2024/03/06 11:50:31;;;;;;;23.33;16.67;;;18.40;99.90;;;;;;5033752;28;20179;-71
2024/03/06 11:52:57;;;;;;;23.23;15.77;;;18.20;99.90;;;;;;5033747;28;20599;-71
2024/03/06 11:55:25;;;;;;;23.67;17.47;;;18.30;99.90;;;;;;5033761;28;20187;-71
2024/03/06 11:57:53;;;;;;;19.73;15.37;;;18.40;99.90;;;;;;5033874;28;20178;-71
2024/03/06 12:00:24;;;;;;;18.17;14.67;;;18.50;99.90;;;;;;5033736;28;20172;-71
2024/03/06 12:02:51;;;;;;;17.20;12.87;;;18.50;99.90;;;;;;5033703;28;20199;-71
2024/03/06 12:05:17;;;;;;;16.90;12.47;;;18.40;99.90;;;;;;5033293;28;20241;-71
2024/03/06 12:07:52;;;;;;;18.55;15.10;;;18.20;99.90;;;;;;5013952;28;20172;-71
2024/03/06 12:10:18;;;;;;;20.30;15.77;;;18.10;99.90;;;;;;5014155;28;20168;-71
2024/03/06 12:12:47;;;;;;;21.42;16.48;;;18.30;99.90;;;;;;5024121;28;20273;-71
2024/03/06 12:15:14;;;;;;;23.80;15.20;;;18.30;99.90;;;;;;5033651;28;20229;-71
2024/03/06 12:17:50;;;;;;;18.20;13.95;;;18.50;99.90;;;;;;5033586;28;20202;-71
2024/03/06 12:20:16;;;;;;;13.85;10.70;;;19.00;99.90;;;;;;5033648;28;20182;-71
2024/03/06 12:22:52;;;;;;;15.25;11.77;;;19.30;99.90;;;;;;5033205;28;20172;-71
2024/03/06 12:25:22;;;;;;;13.07;10.50;;;19.30;99.90;;;;;;5033232;28;20175;-70
2024/03/06 12:27:48;;;;;;;14.43;11.73;;;19.10;99.90;;;;;;5033976;28;20214;-70
2024/03/06 12:30:18;;;;;;;17.95;14.00;;;18.90;99.90;;;;;;5033820;28;20246;-70
2024/03/06 12:32:44;;;;;;;18.92;14.73;;;18.50;99.90;;;;;;5033284;28;20639;-70